Terminal Aerodrome Forecast
Issued by NWS Norman, OK

Home | Current Version | Previous Version | Text Only | Print | Product List | Glossary On
Versions: 1 2 3 4 5 6 7 8 9 10 11 12 13 14 15 16 17 18 19 20 21 22 23 24 25 26 27 28
000
FTUS44 KOUN 182335
TAFSPS
TAF
KSPS 182335Z 1900/1924 17006KT P6SM OVC012
     FM190300 17005KT 5SM BR OVC010
      TEMPO 1909/1913 3/4SM -DZ BR OVC006
     FM191600 20010KT P6SM BKN040=

USA.gov is the U.S. government's official web portal to all federal, state and local government web resources and services.